Time;durP1;ratioP1;P1;durP2;ratioP2;P2;SDS_P1;SDS_P2;PMS_P1;PMS_P2;Temp;Humidity;BMP_temperature;BMP_pressure;BME280_temperature;BME280_humidity;BME280_pressure;Samples;Min_cycle;Max_cycle;Signal;HPM_P1;HPM_P2
2023/09/25 00:01:36;;;;;;;7.80;2.50;;;14.30;99.90;;;;;;5067148;28;20049;-64
2023/09/25 00:04:02;;;;;;;6.43;2.33;;;14.30;99.90;;;;;;5055438;28;20043;-64
2023/09/25 00:06:28;;;;;;;3.92;1.70;;;14.30;99.90;;;;;;5072555;28;20110;-64
2023/09/25 00:08:55;;;;;;;5.90;1.95;;;14.30;99.90;;;;;;5072300;28;20048;-64
2023/09/25 00:11:21;;;;;;;6.30;2.33;;;14.30;99.90;;;;;;5064222;28;20040;-64
2023/09/25 00:13:47;;;;;;;4.95;1.95;;;14.30;99.90;;;;;;5052669;28;20848;-64
2023/09/25 00:16:14;;;;;;;5.70;2.50;;;14.30;99.90;;;;;;5051916;28;20123;-64
2023/09/25 00:18:39;;;;;;;4.57;2.28;;;14.30;99.90;;;;;;5035276;28;20134;-64
2023/09/25 00:21:05;;;;;;;5.32;2.45;;;14.20;99.90;;;;;;5052676;28;20087;-64
2023/09/25 00:23:31;;;;;;;11.43;2.65;;;14.20;99.90;;;;;;5052364;28;20059;-64
2023/09/25 00:26:03;;;;;;;4.43;1.83;;;14.20;99.90;;;;;;5051805;28;20052;-64
2023/09/25 00:28:29;;;;;;;4.65;2.22;;;14.20;99.90;;;;;;5052614;28;20045;-64
2023/09/25 00:30:55;;;;;;;4.32;1.92;;;14.10;99.90;;;;;;5051645;28;20128;-64
2023/09/25 00:33:21;;;;;;;5.80;2.30;;;14.10;99.90;;;;;;5052105;28;20172;-64
2023/09/25 00:35:46;;;;;;;5.70;2.42;;;14.10;99.90;;;;;;5070801;28;20036;-64
2023/09/25 00:38:13;;;;;;;5.28;2.47;;;14.10;99.90;;;;;;5071365;28;20128;-64
2023/09/25 00:40:39;;;;;;;5.43;2.28;;;14.10;99.90;;;;;;5055023;28;20609;-64
2023/09/25 00:43:07;;;;;;;5.53;2.28;;;14.00;99.90;;;;;;5059001;28;20119;-64
2023/09/25 00:45:37;;;;;;;5.97;2.30;;;14.00;99.90;;;;;;5070942;28;20039;-63
2023/09/25 00:48:04;;;;;;;5.38;2.38;;;13.90;99.90;;;;;;5071659;28;20044;-63
2023/09/25 00:50:31;;;;;;;6.10;2.40;;;13.90;99.90;;;;;;5071338;28;20406;-63
2023/09/25 00:53:03;;;;;;;6.57;2.60;;;13.90;99.90;;;;;;5071083;28;20422;-63
2023/09/25 00:55:29;;;;;;;5.10;2.35;;;13.90;99.90;;;;;;5064337;28;20115;-63
2023/09/25 00:57:56;;;;;;;4.78;2.35;;;13.90;99.90;;;;;;5071935;28;20037;-64
2023/09/25 01:00:22;;;;;;;5.55;2.85;;;13.80;99.90;;;;;;5071059;28;20040;-63
2023/09/25 01:02:48;;;;;;;4.78;2.30;;;13.80;99.90;;;;;;5071521;28;20054;-63
2023/09/25 01:05:14;;;;;;;4.85;2.65;;;13.80;99.90;;;;;;5067003;28;20037;-64
2023/09/25 01:07:40;;;;;;;5.47;2.90;;;13.80;99.90;;;;;;5052054;28;20110;-64
2023/09/25 01:10:16;;;;;;;7.43;2.80;;;13.70;99.90;;;;;;5063690;28;20048;-63
2023/09/25 01:12:42;;;;;;;5.22;2.58;;;13.70;99.90;;;;;;5054798;28;20131;-63
2023/09/25 01:15:09;;;;;;;6.55;2.50;;;13.70;99.90;;;;;;5070730;28;20120;-64
2023/09/25 01:17:35;;;;;;;5.20;2.17;;;13.70;99.90;;;;;;5072567;28;20449;-63
2023/09/25 01:20:14;;;;;;;4.68;2.45;;;13.70;99.90;;;;;;5072069;28;20071;-64
2023/09/25 01:22:47;;;;;;;5.55;2.63;;;13.60;99.90;;;;;;5072521;28;20086;-64
2023/09/25 01:25:13;;;;;;;5.85;3.05;;;13.60;99.90;;;;;;5071067;28;20044;-64
2023/09/25 01:27:40;;;;;;;5.97;2.30;;;13.60;99.90;;;;;;5103685;28;20493;-64
2023/09/25 01:30:09;;;;;;;6.97;2.80;;;13.60;99.90;;;;;;5054286;28;20369;-64
2023/09/25 01:32:37;;;;;;;5.22;2.40;;;13.50;99.90;;;;;;5050630;28;20041;-64
2023/09/25 01:35:08;;;;;;;4.65;2.60;;;13.50;99.90;;;;;;5033833;28;20562;-64
2023/09/25 01:37:34;;;;;;;5.63;2.38;;;13.50;99.90;;;;;;5034315;28;20041;-64
2023/09/25 01:40:00;;;;;;;5.40;3.03;;;13.50;99.90;;;;;;5052395;28;20037;-64
2023/09/25 01:42:25;;;;;;;7.40;3.30;;;13.50;99.90;;;;;;5051358;28;20053;-64
2023/09/25 01:44:51;;;;;;;8.95;2.55;;;13.40;99.90;;;;;;5051983;28;20037;-64
2023/09/25 01:47:17;;;;;;;6.68;2.67;;;13.40;99.90;;;;;;5050801;28;20053;-64
2023/09/25 01:49:43;;;;;;;6.20;3.13;;;13.30;99.90;;;;;;5050046;28;20064;-63
2023/09/25 01:52:09;;;;;;;5.93;3.05;;;13.40;99.90;;;;;;5051867;28;20060;-64
2023/09/25 01:54:35;;;;;;;6.43;3.08;;;13.30;99.90;;;;;;5050676;28;20041;-64
2023/09/25 01:57:02;;;;;;;6.60;2.65;;;13.30;99.90;;;;;;5050417;28;20052;-63
2023/09/25 01:59:27;;;;;;;6.30;3.13;;;13.30;99.90;;;;;;5050501;28;20049;-64
2023/09/25 02:01:53;;;;;;;7.90;2.97;;;13.30;99.90;;;;;;5052344;28;20075;-64
2023/09/25 02:04:19;;;;;;;6.18;3.00;;;13.30;99.90;;;;;;5049954;28;20063;-64
2023/09/25 02:06:45;;;;;;;8.80;3.10;;;13.20;99.90;;;;;;5050533;28;20119;-64
2023/09/25 02:09:11;;;;;;;8.15;2.85;;;13.20;99.90;;;;;;5049987;28;20053;-64
2023/09/25 02:11:37;;;;;;;6.40;3.25;;;13.20;99.90;;;;;;5050341;28;20478;-63
2023/09/25 02:14:03;;;;;;;5.50;2.55;;;13.20;99.90;;;;;;5050824;28;20041;-64
2023/09/25 02:16:29;;;;;;;6.97;3.13;;;13.10;99.90;;;;;;5049518;28;20044;-63
2023/09/25 02:18:55;;;;;;;7.55;2.97;;;13.10;99.90;;;;;;5061648;28;20036;-64
2023/09/25 02:21:20;;;;;;;6.13;3.00;;;13.10;99.90;;;;;;5070808;28;20044;-64
2023/09/25 02:23:46;;;;;;;6.13;3.13;;;13.10;99.90;;;;;;5069445;28;20113;-63
2023/09/25 02:26:12;;;;;;;7.15;3.25;;;13.10;99.90;;;;;;5066859;28;20434;-64
2023/09/25 02:28:38;;;;;;;6.18;3.05;;;13.10;99.90;;;;;;5050477;28;20490;-64
2023/09/25 02:31:04;;;;;;;7.78;3.10;;;13.10;99.90;;;;;;5049808;28;20073;-63
2023/09/25 02:33:30;;;;;;;7.72;3.30;;;13.10;99.90;;;;;;5033676;28;20068;-64
2023/09/25 02:36:06;;;;;;;6.30;2.92;;;13.10;99.90;;;;;;5050546;28;20041;-64
2023/09/25 02:38:31;;;;;;;7.32;3.40;;;13.00;99.90;;;;;;5049511;28;20041;-64
2023/09/25 02:40:57;;;;;;;6.20;2.78;;;13.00;99.90;;;;;;5053391;28;20513;-63
2023/09/25 02:43:23;;;;;;;7.40;3.05;;;13.00;99.90;;;;;;5054328;28;20037;-64
2023/09/25 02:45:49;;;;;;;5.35;2.85;;;13.00;99.90;;;;;;5070205;28;20044;-63
2023/09/25 02:48:14;;;;;;;4.63;2.65;;;13.00;99.90;;;;;;5055222;28;20037;-63
2023/09/25 02:50:40;;;;;;;7.22;3.35;;;13.00;99.90;;;;;;5053919;28;20413;-63
2023/09/25 02:53:06;;;;;;;5.68;2.22;;;13.00;99.90;;;;;;5036664;28;20048;-63
2023/09/25 02:55:32;;;;;;;6.07;3.17;;;13.00;99.90;;;;;;5037253;28;20048;-64
2023/09/25 02:57:58;;;;;;;6.55;3.55;;;12.90;99.90;;;;;;5054567;28;20112;-63
2023/09/25 03:00:24;;;;;;;8.15;3.20;;;12.90;99.90;;;;;;5053095;28;20126;-63
2023/09/25 03:02:50;;;;;;;6.65;3.17;;;12.90;99.90;;;;;;5037332;28;20076;-63
2023/09/25 03:05:15;;;;;;;7.25;3.33;;;12.90;99.90;;;;;;5053781;28;20044;-64
2023/09/25 03:07:41;;;;;;;7.45;3.55;;;12.90;99.90;;;;;;5054285;28;20041;-63
2023/09/25 03:10:08;;;;;;;5.55;2.80;;;12.90;99.90;;;;;;5053663;28;20048;-63
2023/09/25 03:12:33;;;;;;;6.05;2.90;;;12.90;99.90;;;;;;5052876;28;20463;-64
2023/09/25 03:14:59;;;;;;;8.05;3.10;;;12.90;99.90;;;;;;5046352;28;20123;-63
2023/09/25 03:17:25;;;;;;;7.88;3.22;;;12.90;99.90;;;;;;5057232;28;20040;-64
2023/09/25 03:19:51;;;;;;;8.35;2.65;;;12.90;99.90;;;;;;5072831;28;20555;-63
2023/09/25 03:22:18;;;;;;;6.60;3.45;;;12.90;99.90;;;;;;5073370;28;20044;-63
2023/09/25 03:24:44;;;;;;;8.35;3.72;;;12.90;99.90;;;;;;5107168;28;20044;-64
2023/09/25 03:27:09;;;;;;;7.53;2.88;;;12.90;99.90;;;;;;5064091;28;20452;-63
2023/09/25 03:29:35;;;;;;;8.63;3.80;;;12.90;99.90;;;;;;5053382;28;20037;-63
2023/09/25 03:32:02;;;;;;;6.13;3.10;;;12.90;99.90;;;;;;5053574;28;20090;-63
2023/09/25 03:34:27;;;;;;;6.70;2.85;;;12.90;99.90;;;;;;5055697;28;20478;-64
2023/09/25 03:36:53;;;;;;;5.82;3.03;;;12.90;99.90;;;;;;5073414;28;20043;-64
2023/09/25 03:39:19;;;;;;;6.95;3.42;;;12.80;99.90;;;;;;5053992;28;20507;-63
2023/09/25 03:41:44;;;;;;;6.97;3.45;;;12.80;99.90;;;;;;5052350;28;20390;-64
2023/09/25 03:44:10;;;;;;;6.65;2.83;;;12.80;99.90;;;;;;5039375;28;20350;-63
2023/09/25 03:46:36;;;;;;;7.30;3.28;;;12.80;99.90;;;;;;5072561;28;20186;-63
2023/09/25 03:49:05;;;;;;;7.35;3.45;;;12.80;99.90;;;;;;5035687;28;20433;-64
2023/09/25 03:51:34;;;;;;;5.78;3.20;;;12.80;99.90;;;;;;5052078;28;20053;-64
2023/09/25 03:54:00;;;;;;;5.30;3.05;;;12.80;99.90;;;;;;5053355;28;20130;-63
2023/09/25 03:56:29;;;;;;;7.13;3.53;;;12.80;99.90;;;;;;5053543;28;20454;-64
2023/09/25 03:58:55;;;;;;;6.50;3.00;;;12.80;99.90;;;;;;5036714;28;20037;-63
2023/09/25 04:01:21;;;;;;;6.97;2.97;;;12.80;99.90;;;;;;5052787;28;20049;-63
2023/09/25 04:03:47;;;;;;;7.78;3.55;;;12.70;99.90;;;;;;5052223;28;20397;-64
2023/09/25 04:06:12;;;;;;;7.78;3.55;;;12.70;99.90;;;;;;5052741;28;20481;-64
2023/09/25 04:08:38;;;;;;;7.78;3.85;;;12.70;99.90;;;;;;5066432;28;20396;-64
2023/09/25 04:11:04;;;;;;;6.95;3.58;;;12.70;99.90;;;;;;5072309;28;20048;-63
2023/09/25 04:13:31;;;;;;;9.23;3.30;;;12.70;99.90;;;;;;5067092;28;20025;-63
2023/09/25 04:15:57;;;;;;;5.97;2.88;;;12.70;99.90;;;;;;5067203;28;20046;-63
2023/09/25 04:18:23;;;;;;;5.50;3.15;;;12.70;99.90;;;;;;5072474;28;20052;-63
2023/09/25 04:20:49;;;;;;;5.90;3.20;;;12.70;99.90;;;;;;5056038;28;20032;-63
2023/09/25 04:23:15;;;;;;;8.48;4.10;;;12.70;99.90;;;;;;5072683;28;20033;-64
2023/09/25 04:25:41;;;;;;;6.72;3.10;;;12.60;99.90;;;;;;5072404;28;20090;-63
2023/09/25 04:28:07;;;;;;;5.50;2.88;;;12.70;99.90;;;;;;5073234;28;20032;-64
2023/09/25 04:30:32;;;;;;;6.38;2.97;;;12.60;99.90;;;;;;5071664;28;20114;-63
2023/09/25 04:32:58;;;;;;;6.30;2.88;;;12.60;99.90;;;;;;5055580;28;20045;-63
2023/09/25 04:35:24;;;;;;;5.68;2.78;;;12.60;99.90;;;;;;5071424;28;20040;-64
2023/09/25 04:37:50;;;;;;;6.18;3.17;;;12.60;99.90;;;;;;5071558;28;20094;-64
2023/09/25 04:42:47;;;;;;;5.97;3.53;;;12.60;99.90;;;;;;5071485;28;20071;-64
2023/09/25 04:45:13;;;;;;;5.85;3.08;;;12.60;99.90;;;;;;5071661;28;20553;-63
2023/09/25 04:47:41;;;;;;;6.70;3.00;;;12.60;99.90;;;;;;5054353;28;20090;-63
2023/09/25 04:50:08;;;;;;;5.50;2.92;;;12.60;99.90;;;;;;5071812;28;20052;-63
2023/09/25 04:52:35;;;;;;;6.97;2.90;;;12.60;99.90;;;;;;5072260;28;20044;-63
2023/09/25 04:55:07;;;;;;;7.22;3.47;;;12.60;99.90;;;;;;5071890;28;20397;-63
2023/09/25 04:57:33;;;;;;;6.45;2.95;;;12.60;99.90;;;;;;5032004;28;20146;-63
2023/09/25 05:00:06;;;;;;;5.95;2.88;;;12.70;99.90;;;;;;5031216;28;20505;-64
2023/09/25 05:02:31;;;;;;;7.97;2.90;;;12.60;99.90;;;;;;5048405;28;20437;-64
2023/09/25 05:04:57;;;;;;;7.60;3.88;;;12.70;99.90;;;;;;5031919;28;20124;-64
2023/09/25 05:07:22;;;;;;;7.47;3.15;;;12.70;99.90;;;;;;5064362;28;20068;-64
2023/09/25 05:09:49;;;;;;;6.20;2.83;;;12.70;99.90;;;;;;5072940;28;20048;-63
2023/09/25 05:12:15;;;;;;;5.75;2.90;;;12.70;99.90;;;;;;5050673;28;20045;-63
2023/09/25 05:14:41;;;;;;;8.45;3.20;;;12.80;99.90;;;;;;5059460;28;20037;-64
2023/09/25 05:17:06;;;;;;;6.20;2.80;;;12.80;99.90;;;;;;5064170;28;20029;-64
2023/09/25 05:19:32;;;;;;;7.15;3.10;;;12.80;99.90;;;;;;5063833;28;20049;-64
2023/09/25 05:21:58;;;;;;;5.88;2.72;;;12.80;99.90;;;;;;5064798;28;20148;-63
2023/09/25 05:24:23;;;;;;;5.63;3.00;;;12.80;99.90;;;;;;5064413;28;20037;-63
2023/09/25 05:26:49;;;;;;;7.10;2.40;;;12.90;99.90;;;;;;5063646;28;20053;-64
2023/09/25 05:29:15;;;;;;;6.50;2.50;;;12.90;99.90;;;;;;5031562;28;20128;-63
2023/09/25 05:31:40;;;;;;;5.18;2.70;;;12.90;99.90;;;;;;5031057;28;20042;-63
2023/09/25 05:34:06;;;;;;;6.63;3.13;;;12.90;99.90;;;;;;5066201;28;20037;-63
2023/09/25 05:36:32;;;;;;;7.13;3.03;;;13.00;99.90;;;;;;5070979;28;20101;-63
2023/09/25 05:38:58;;;;;;;7.57;2.97;;;13.00;99.90;;;;;;5052959;28;20091;-63
2023/09/25 05:41:23;;;;;;;4.90;2.53;;;13.00;99.90;;;;;;5051669;28;20040;-64
2023/09/25 05:43:50;;;;;;;6.50;2.63;;;13.00;99.90;;;;;;5051053;28;20060;-64
2023/09/25 05:46:15;;;;;;;5.38;2.90;;;13.00;99.90;;;;;;5052128;28;20048;-63
2023/09/25 05:48:41;;;;;;;8.60;2.97;;;13.00;99.90;;;;;;5051502;28;20119;-64
2023/09/25 05:51:07;;;;;;;4.63;2.20;;;13.00;99.90;;;;;;5050779;28;20192;-63
2023/09/25 05:53:34;;;;;;;5.30;2.63;;;13.00;99.90;;;;;;5051952;28;20037;-63
2023/09/25 05:55:59;;;;;;;6.07;2.65;;;13.00;99.90;;;;;;5051016;28;20047;-63
2023/09/25 05:58:25;;;;;;;6.65;2.78;;;13.10;99.90;;;;;;5051799;28;20123;-63
2023/09/25 06:00:51;;;;;;;8.05;3.03;;;13.10;99.90;;;;;;5054999;28;20108;-63
2023/09/25 06:03:17;;;;;;;6.63;3.20;;;13.10;99.90;;;;;;5051320;28;20044;-64
2023/09/25 06:05:43;;;;;;;7.10;2.67;;;13.10;99.90;;;;;;5061792;28;20393;-63
2023/09/25 06:08:09;;;;;;;9.50;3.25;;;13.10;99.90;;;;;;5050862;28;20470;-63
2023/09/25 06:10:34;;;;;;;6.30;2.70;;;13.20;99.90;;;;;;5050221;28;20041;-63
2023/09/25 06:13:01;;;;;;;5.18;2.80;;;13.20;99.90;;;;;;5084550;28;20124;-63
2023/09/25 06:15:30;;;;;;;5.10;2.40;;;13.20;99.90;;;;;;5049290;28;20040;-63
2023/09/25 06:17:58;;;;;;;4.57;2.15;;;13.20;99.90;;;;;;5050764;28;20116;-63
2023/09/25 06:20:26;;;;;;;5.50;2.40;;;13.20;99.90;;;;;;5053099;28;20116;-63
2023/09/25 06:22:52;;;;;;;4.88;2.20;;;13.20;99.90;;;;;;5038161;28;20044;-63
2023/09/25 06:25:18;;;;;;;4.63;2.10;;;13.30;99.90;;;;;;5048546;28;20049;-63
2023/09/25 06:27:44;;;;;;;6.82;2.95;;;13.30;99.90;;;;;;5048261;28;20077;-63
2023/09/25 06:30:13;;;;;;;5.28;2.22;;;13.40;99.90;;;;;;5047381;28;20071;-63
2023/09/25 06:32:40;;;;;;;6.60;2.45;;;13.50;99.90;;;;;;5063910;28;20047;-63
2023/09/25 06:35:06;;;;;;;5.95;2.20;;;13.50;99.90;;;;;;5049833;28;20033;-63
2023/09/25 06:37:32;;;;;;;5.25;2.47;;;13.50;99.90;;;;;;5064054;28;20406;-63
2023/09/25 06:39:57;;;;;;;4.97;2.55;;;13.60;99.90;;;;;;5066332;28;20048;-63
2023/09/25 06:42:23;;;;;;;5.78;2.45;;;13.50;99.90;;;;;;5048792;28;20051;-64
2023/09/25 06:44:49;;;;;;;5.28;2.28;;;13.60;99.90;;;;;;5059456;28;20059;-64
2023/09/25 06:47:15;;;;;;;8.32;2.70;;;13.60;99.90;;;;;;5035423;28;20036;-64
2023/09/25 06:49:41;;;;;;;6.53;2.42;;;13.70;99.90;;;;;;5051405;28;20057;-64
2023/09/25 06:52:06;;;;;;;4.50;2.10;;;13.70;99.90;;;;;;5052584;28;20432;-64
2023/09/25 06:54:32;;;;;;;5.35;2.67;;;13.70;99.90;;;;;;5050310;28;20048;-64
2023/09/25 06:56:59;;;;;;;6.85;2.47;;;13.70;99.90;;;;;;5067231;28;20048;-64
2023/09/25 06:59:26;;;;;;;6.40;3.13;;;13.80;99.90;;;;;;5049282;28;20116;-65
2023/09/25 07:01:51;;;;;;;5.55;2.83;;;13.80;99.90;;;;;;5067059;28;20041;-65
2023/09/25 07:04:19;;;;;;;5.55;2.17;;;13.80;99.90;;;;;;5049960;28;20625;-64
2023/09/25 07:06:45;;;;;;;9.73;2.65;;;13.80;99.90;;;;;;5032926;28;20076;-64
2023/09/25 07:09:14;;;;;;;4.30;2.20;;;13.90;99.90;;;;;;5050000;28;20080;-64
2023/09/25 07:11:40;;;;;;;5.03;2.38;;;13.90;99.90;;;;;;5049040;28;20049;-65
2023/09/25 07:14:05;;;;;;;5.28;2.42;;;13.90;99.90;;;;;;5049974;28;20394;-65
2023/09/25 07:16:31;;;;;;;6.00;2.25;;;14.00;99.90;;;;;;5061256;28;20040;-66
2023/09/25 07:18:57;;;;;;;5.70;2.35;;;14.00;99.90;;;;;;5034841;28;20933;-66
2023/09/25 07:21:23;;;;;;;6.82;2.40;;;14.00;99.90;;;;;;5049872;28;20045;-66
2023/09/25 07:23:49;;;;;;;7.10;3.17;;;14.10;99.90;;;;;;5049854;28;20055;-66
2023/09/25 07:26:17;;;;;;;4.43;1.92;;;14.10;99.90;;;;;;5048969;28;20045;-66
2023/09/25 07:28:45;;;;;;;5.25;2.40;;;14.20;99.90;;;;;;5055419;28;20044;-66
2023/09/25 07:31:11;;;;;;;4.93;2.50;;;14.20;99.90;;;;;;5052122;28;20398;-66
2023/09/25 07:33:37;;;;;;;6.55;2.55;;;14.20;99.90;;;;;;5052598;28;20041;-66
2023/09/25 07:36:05;;;;;;;4.93;2.15;;;14.30;99.90;;;;;;5053390;28;20136;-66
2023/09/25 07:38:31;;;;;;;5.57;2.47;;;14.30;99.90;;;;;;5052273;28;20048;-66
2023/09/25 07:40:57;;;;;;;7.45;2.70;;;14.30;99.90;;;;;;5051975;28;20041;-66
2023/09/25 07:43:23;;;;;;;4.75;2.10;;;14.40;99.90;;;;;;5054080;28;20394;-66
2023/09/25 07:45:52;;;;;;;4.60;2.10;;;14.40;99.90;;;;;;5070911;28;20049;-66
2023/09/25 07:48:18;;;;;;;4.65;2.20;;;14.40;99.90;;;;;;5053082;28;20048;-66
2023/09/25 07:50:47;;;;;;;5.93;2.70;;;14.40;99.90;;;;;;5064738;28;20045;-66
2023/09/25 07:53:13;;;;;;;5.38;2.33;;;14.40;99.90;;;;;;5052569;28;20036;-66
2023/09/25 07:55:40;;;;;;;4.88;2.20;;;14.40;99.90;;;;;;5058311;28;20044;-66
2023/09/25 07:58:06;;;;;;;5.32;2.33;;;14.50;99.90;;;;;;5053974;28;20150;-66
2023/09/25 08:00:40;;;;;;;6.30;2.42;;;14.50;99.90;;;;;;5048724;28;20116;-65
2023/09/25 08:03:06;;;;;;;5.68;2.75;;;14.50;99.90;;;;;;5057569;28;20043;-64
2023/09/25 08:05:33;;;;;;;5.05;2.00;;;14.50;99.90;;;;;;5070481;28;20566;-65
2023/09/25 08:07:58;;;;;;;4.40;2.30;;;14.50;99.90;;;;;;5067039;28;20044;-70
2023/09/25 08:10:24;;;;;;;7.43;2.63;;;14.60;99.90;;;;;;5104381;28;20137;-68
2023/09/25 08:12:50;;;;;;;5.15;2.45;;;14.60;99.90;;;;;;5056843;28;20494;-65
2023/09/25 08:15:15;;;;;;;7.13;2.53;;;14.60;99.90;;;;;;5051834;28;20037;-75
2023/09/25 08:17:46;;;;;;;5.15;2.22;;;14.60;99.90;;;;;;5042011;28;20049;-75
2023/09/25 08:20:22;;;;;;;5.20;2.42;;;14.60;99.90;;;;;;5064745;28;20572;-74
2023/09/25 08:22:50;;;;;;;6.43;2.22;;;14.60;99.90;;;;;;5061423;28;20057;-74
2023/09/25 08:25:16;;;;;;;5.30;2.42;;;14.60;99.90;;;;;;5072482;28;20477;-73
2023/09/25 08:27:43;;;;;;;8.50;2.78;;;14.60;99.90;;;;;;5066472;28;20062;-74
2023/09/25 08:30:09;;;;;;;4.88;2.35;;;14.60;99.90;;;;;;5055292;28;20498;-76
2023/09/25 08:32:35;;;;;;;4.13;1.95;;;14.60;99.90;;;;;;5045120;28;20041;-76
2023/09/25 08:35:02;;;;;;;5.07;2.03;;;14.70;99.90;;;;;;5052292;28;20037;-75
2023/09/25 08:37:27;;;;;;;5.18;2.20;;;14.70;99.90;;;;;;5050675;28;20490;-73
2023/09/25 08:39:54;;;;;;;4.82;2.25;;;14.70;99.90;;;;;;5052251;28;20044;-72
2023/09/25 08:42:21;;;;;;;8.35;2.78;;;14.80;99.90;;;;;;5052060;28;20088;-72
2023/09/25 08:44:53;;;;;;;5.60;2.17;;;14.90;99.90;;;;;;5051252;28;20045;-73
2023/09/25 08:47:19;;;;;;;6.70;2.63;;;14.90;99.90;;;;;;5051796;28;20076;-72
2023/09/25 08:49:52;;;;;;;5.50;2.20;;;15.00;99.90;;;;;;5056110;28;20513;-70
2023/09/25 08:52:21;;;;;;;6.72;2.78;;;15.00;99.90;;;;;;5057887;28;20044;-70
2023/09/25 08:54:50;;;;;;;9.63;2.28;;;15.10;99.90;;;;;;5058309;28;20043;-70
2023/09/25 08:57:17;;;;;;;5.00;2.40;;;15.20;99.90;;;;;;5051241;28;20478;-69
2023/09/25 08:59:48;;;;;;;7.80;2.40;;;15.20;99.90;;;;;;5076005;28;20045;-70
2023/09/25 09:02:15;;;;;;;5.13;2.15;;;15.30;99.90;;;;;;5070802;28;20052;-69
2023/09/25 09:04:41;;;;;;;5.90;2.40;;;15.40;99.90;;;;;;5070581;28;20036;-71
2023/09/25 09:07:08;;;;;;;5.43;2.15;;;15.50;99.90;;;;;;5071437;28;20051;-70
2023/09/25 09:09:35;;;;;;;3.72;1.75;;;15.60;99.90;;;;;;5071532;28;20044;-72
2023/09/25 09:12:01;;;;;;;5.00;2.50;;;15.70;99.90;;;;;;5070850;28;20040;-67
2023/09/25 09:14:36;;;;;;;6.32;2.40;;;15.80;99.90;;;;;;5051736;28;20037;-65
2023/09/25 09:17:04;;;;;;;6.00;2.20;;;15.90;99.90;;;;;;5051815;28;20504;-66
2023/09/25 09:19:48;;;;;;;5.13;2.15;;;16.00;99.90;;;;;;5050271;28;20037;-65
2023/09/25 09:22:16;;;;;;;5.43;2.55;;;16.20;99.90;;;;;;5051510;28;20375;-65
2023/09/25 09:24:43;;;;;;;6.72;2.28;;;16.20;99.90;;;;;;5051451;28;20138;-65
2023/09/25 09:27:11;;;;;;;5.63;2.17;;;16.30;99.90;;;;;;5050471;28;20052;-66
2023/09/25 09:29:39;;;;;;;5.70;2.13;;;16.40;99.90;;;;;;5051187;28;20072;-66
2023/09/25 09:32:06;;;;;;;6.15;2.28;;;16.40;99.90;;;;;;5051624;28;20481;-68
2023/09/25 09:34:32;;;;;;;5.30;1.98;;;16.50;99.90;;;;;;5061393;28;20068;-66
2023/09/25 09:37:00;;;;;;;3.95;1.80;;;16.50;99.90;;;;;;5051655;28;20052;-67
2023/09/25 09:39:26;;;;;;;5.32;2.28;;;16.60;99.90;;;;;;5051864;28;20061;-68
2023/09/25 09:41:54;;;;;;;5.07;2.28;;;16.70;99.90;;;;;;5050766;28;20106;-67
2023/09/25 09:44:20;;;;;;;4.80;2.25;;;16.70;99.90;;;;;;5054256;28;20045;-67
2023/09/25 09:46:46;;;;;;;4.82;2.25;;;16.70;99.90;;;;;;5056712;28;20055;-66
2023/09/25 09:49:15;;;;;;;10.98;3.25;;;16.80;99.90;;;;;;5055657;28;20102;-68
2023/09/25 09:51:45;;;;;;;6.53;2.35;;;16.80;99.90;;;;;;5050659;28;20056;-66
2023/09/25 09:54:13;;;;;;;4.40;2.15;;;16.80;99.90;;;;;;5051331;28;20068;-66
2023/09/25 09:56:39;;;;;;;4.75;2.13;;;16.80;99.90;;;;;;5051174;28;20570;-73
2023/09/25 09:59:06;;;;;;;6.40;2.55;;;16.80;99.90;;;;;;5034879;28;21295;-71
2023/09/25 10:01:33;;;;;;;8.23;2.33;;;16.90;99.90;;;;;;5050898;28;20055;-70
2023/09/25 10:04:03;;;;;;;5.05;2.15;;;16.90;99.90;;;;;;5052101;28;20397;-62
2023/09/25 10:06:29;;;;;;;6.68;2.38;;;16.90;99.90;;;;;;5050261;28;20052;-62
2023/09/25 10:09:07;;;;;;;8.05;2.67;;;17.00;99.90;;;;;;5067782;28;20051;-63
2023/09/25 10:11:33;;;;;;;7.72;2.47;;;17.10;99.90;;;;;;5051919;28;20059;-63
2023/09/25 10:14:06;;;;;;;7.88;2.58;;;17.20;99.90;;;;;;5050964;28;20037;-62
2023/09/25 10:16:53;;;;;;;5.43;2.45;;;17.20;99.90;;;;;;5050203;28;20060;-62
2023/09/25 10:19:20;;;;;;;8.30;2.70;;;17.20;99.90;;;;;;5070370;28;20037;-61
2023/09/25 10:22:21;;;;;;;5.53;2.20;;;17.30;99.90;;;;;;5047339;28;20045;-62
2023/09/25 10:24:58;;;;;;;5.20;2.25;;;17.30;99.90;;;;;;5030852;28;20185;-64
2023/09/25 10:27:24;;;;;;;4.85;2.28;;;17.40;99.90;;;;;;5063767;28;20045;-65
2023/09/25 10:30:14;;;;;;;4.88;2.13;;;17.40;99.90;;;;;;5029933;28;20049;-65
2023/09/25 10:32:42;;;;;;;6.25;2.40;;;17.40;99.90;;;;;;5024125;28;20131;-64
2023/09/25 10:35:35;;;;;;;5.60;2.45;;;17.50;99.90;;;;;;5066952;28;20110;-64
2023/09/25 10:38:19;;;;;;;7.18;2.58;;;17.60;99.90;;;;;;5050152;28;20037;-64
2023/09/25 10:40:47;;;;;;;5.68;2.65;;;17.60;99.90;;;;;;5048590;28;20043;-63
2023/09/25 10:43:15;;;;;;;6.82;2.40;;;17.70;99.90;;;;;;5047632;28;20103;-62
2023/09/25 10:45:42;;;;;;;5.32;2.45;;;17.80;99.90;;;;;;5057833;28;20048;-63
2023/09/25 10:48:08;;;;;;;5.60;2.05;;;17.90;99.90;;;;;;5053255;28;20056;-63
2023/09/25 10:50:34;;;;;;;6.78;2.80;;;18.00;99.90;;;;;;5046519;28;20556;-63
2023/09/25 10:53:00;;;;;;;5.35;2.65;;;18.10;99.90;;;;;;5048039;28;20045;-62
2023/09/25 10:55:26;;;;;;;5.57;2.67;;;18.10;99.90;;;;;;5047069;28;20049;-62
2023/09/25 10:57:52;;;;;;;6.00;2.38;;;18.10;99.90;;;;;;5046824;28;20048;-62
2023/09/25 11:00:19;;;;;;;4.88;2.78;;;18.10;99.90;;;;;;5057180;28;20520;-62
2023/09/25 11:02:45;;;;;;;5.65;2.70;;;18.20;99.90;;;;;;5071053;28;20404;-62
2023/09/25 11:05:11;;;;;;;4.90;2.30;;;18.20;99.90;;;;;;5061105;28;20037;-62
2023/09/25 11:07:37;;;;;;;6.03;2.58;;;18.20;99.90;;;;;;5053832;28;20140;-63
2023/09/25 11:10:09;;;;;;;7.05;2.40;;;18.30;99.90;;;;;;5038221;28;20127;-62
2023/09/25 11:12:36;;;;;;;5.35;2.40;;;18.30;99.90;;;;;;5054056;28;20041;-61
2023/09/25 11:15:09;;;;;;;4.95;2.20;;;18.40;99.90;;;;;;5060167;28;20466;-62
2023/09/25 11:17:34;;;;;;;4.30;2.40;;;18.40;99.90;;;;;;5037116;28;20037;-63
2023/09/25 11:20:07;;;;;;;5.63;2.65;;;18.50;99.90;;;;;;5052962;28;20118;-63
2023/09/25 11:22:38;;;;;;;5.72;2.70;;;18.60;99.90;;;;;;5053552;28;20041;-62
2023/09/25 11:25:10;;;;;;;5.65;2.35;;;18.70;99.90;;;;;;5036603;28;20044;-64
2023/09/25 11:27:37;;;;;;;5.63;2.55;;;18.70;99.90;;;;;;5053545;28;20052;-64
2023/09/25 11:30:13;;;;;;;5.72;3.03;;;18.70;99.90;;;;;;5053679;28;20490;-63
2023/09/25 11:32:41;;;;;;;5.53;2.42;;;18.80;99.90;;;;;;5052547;28;20041;-62
2023/09/25 11:35:12;;;;;;;5.35;2.50;;;18.70;99.90;;;;;;5053338;28;20055;-62
2023/09/25 11:37:59;;;;;;;5.13;2.28;;;18.80;99.90;;;;;;5036961;28;20127;-62
2023/09/25 11:40:26;;;;;;;6.40;3.03;;;18.80;99.90;;;;;;5052069;28;20053;-63
2023/09/25 11:42:52;;;;;;;4.43;2.10;;;18.80;99.90;;;;;;5053253;28;20053;-63
2023/09/25 11:45:18;;;;;;;4.63;2.45;;;18.90;99.90;;;;;;5053481;28;20109;-63
2023/09/25 11:47:44;;;;;;;9.07;2.88;;;18.90;99.90;;;;;;5052125;28;20047;-62
2023/09/25 11:50:11;;;;;;;5.05;2.58;;;18.90;99.90;;;;;;5053092;28;20405;-63
2023/09/25 11:52:37;;;;;;;5.97;2.53;;;19.00;99.90;;;;;;5053036;28;20135;-62
2023/09/25 11:55:08;;;;;;;8.07;2.70;;;19.00;99.90;;;;;;5035896;28;20116;-62
2023/09/25 11:57:33;;;;;;;5.53;2.88;;;19.10;99.90;;;;;;5036186;28;20033;-62
2023/09/25 11:59:59;;;;;;;6.45;2.75;;;19.10;99.90;;;;;;5052690;28;20441;-62
2023/09/25 12:02:25;;;;;;;6.28;3.00;;;19.10;99.90;;;;;;5053075;28;20036;-62
2023/09/25 12:04:54;;;;;;;5.13;2.35;;;19.20;99.90;;;;;;5052738;28;20521;-62
2023/09/25 12:07:20;;;;;;;7.15;3.05;;;19.30;99.90;;;;;;5051936;28;20041;-63
2023/09/25 12:09:47;;;;;;;6.95;2.63;;;19.30;99.90;;;;;;5052761;28;20103;-62
2023/09/25 12:12:13;;;;;;;5.70;2.45;;;19.30;99.90;;;;;;5051848;28;20040;-63
2023/09/25 12:14:39;;;;;;;5.40;2.50;;;19.30;99.90;;;;;;5052130;28;20098;-62
2023/09/25 12:17:07;;;;;;;5.82;2.65;;;19.40;99.90;;;;;;5052800;28;20086;-62
2023/09/25 12:19:33;;;;;;;6.82;3.05;;;19.40;99.90;;;;;;5052781;28;20037;-62
2023/09/25 12:21:59;;;;;;;5.55;2.78;;;19.40;99.90;;;;;;5052205;28;20487;-62
2023/09/25 12:24:25;;;;;;;6.90;3.28;;;19.50;99.90;;;;;;5053636;28;20073;-62
2023/09/25 12:26:50;;;;;;;7.20;3.25;;;19.50;99.90;;;;;;5052337;28;20125;-63
2023/09/25 12:29:17;;;;;;;6.70;3.28;;;19.60;99.90;;;;;;5035058;28;20037;-62
2023/09/25 12:31:43;;;;;;;6.93;2.95;;;19.60;99.90;;;;;;5052135;28;20091;-63
2023/09/25 12:34:09;;;;;;;7.72;3.30;;;19.70;99.90;;;;;;5052328;28;20044;-61
2023/09/25 12:36:34;;;;;;;5.68;3.05;;;19.70;99.90;;;;;;5034774;28;20071;-61
2023/09/25 12:39:00;;;;;;;8.48;3.60;;;19.70;99.90;;;;;;5052382;28;20045;-61
2023/09/25 12:41:27;;;;;;;5.82;2.92;;;19.70;99.90;;;;;;5052112;28;20056;-61
2023/09/25 12:43:53;;;;;;;7.65;3.25;;;19.70;99.90;;;;;;5051593;28;20049;-61
2023/09/25 12:46:18;;;;;;;10.55;4.07;;;19.80;99.90;;;;;;5053287;28;20501;-62
2023/09/25 12:48:44;;;;;;;11.20;3.38;;;19.80;99.90;;;;;;5051856;28;20037;-61